Duck Creek, Indiana
Current Conditions -  °F | °C
As of 10:55 AM on Friday 21 Nov 2014 (Local Time) from KMZZ Reporting Station
Clear Clear  
Wind Chill: 21°   Ceiling: Unl
Heat Index: 21°   Visibility: 10mi
Dew Point: 11°   Wind: 0mph
Humidity: 63%   Direction: NA
Pressure: 30.51"   Gusts: NA
Location:  40.3067°N, 85.834°W
Report Text: KMZZ 211555Z AUTO 00000KT 10SM CLR M06/M12 A3051 RMK AO2 T10591119
Loading
Personal Weather Stations






























Interactive Weather Map New forecast layout! Learn more

10-Day Weather Forecast

Advertisements
Track Severe Weather on mobile